sensor_id;sensor_type;location;lat;lon;timestamp;temperature;humidity
43089;DHT22;28709;52.030;5.652;2023-03-30T00:00:00;13.00;99.90
43089;DHT22;28709;52.030;5.652;2023-03-30T00:02:27;13.00;99.90
43089;DHT22;28709;52.030;5.652;2023-03-30T00:04:56;13.10;99.90
43089;DHT22;28709;52.030;5.652;2023-03-30T00:07:30;13.10;99.90
43089;DHT22;28709;52.030;5.652;2023-03-30T00:09:56;13.10;99.90
43089;DHT22;28709;52.030;5.652;2023-03-30T00:12:23;13.10;99.90
43089;DHT22;28709;52.030;5.652;2023-03-30T00:14:49;13.10;99.90
43089;DHT22;28709;52.030;5.652;2023-03-30T00:17:14;13.00;99.90
43089;DHT22;28709;52.030;5.652;2023-03-30T00:19:40;13.00;99.90
43089;DHT22;28709;52.030;5.652;2023-03-30T00:22:07;13.10;99.90
43089;DHT22;28709;52.030;5.652;2023-03-30T00:24:35;13.10;99.90
43089;DHT22;28709;52.030;5.652;2023-03-30T00:27:01;13.10;99.90
43089;DHT22;28709;52.030;5.652;2023-03-30T00:29:27;13.10;99.90
43089;DHT22;28709;52.030;5.652;2023-03-30T00:31:53;13.10;99.90
43089;DHT22;28709;52.030;5.652;2023-03-30T00:34:19;13.10;99.90
43089;DHT22;28709;52.030;5.652;2023-03-30T00:36:45;13.20;99.90
43089;DHT22;28709;52.030;5.652;2023-03-30T00:39:13;13.20;99.90
43089;DHT22;28709;52.030;5.652;2023-03-30T00:41:43;13.20;99.90
43089;DHT22;28709;52.030;5.652;2023-03-30T00:47:13;13.20;99.90
43089;DHT22;28709;52.030;5.652;2023-03-30T00:49:40;13.20;99.90
43089;DHT22;28709;52.030;5.652;2023-03-30T00:52:07;13.20;99.90
43089;DHT22;28709;52.030;5.652;2023-03-30T00:54:34;13.20;99.90
43089;DHT22;28709;52.030;5.652;2023-03-30T00:57:00;13.20;99.90
43089;DHT22;28709;52.030;5.652;2023-03-30T00:59:26;13.20;99.90
43089;DHT22;28709;52.030;5.652;2023-03-30T01:01:52;13.20;99.90
43089;DHT22;28709;52.030;5.652;2023-03-30T01:04:18;13.30;99.90
43089;DHT22;28709;52.030;5.652;2023-03-30T01:06:44;13.30;99.90
43089;DHT22;28709;52.030;5.652;2023-03-30T01:09:14;13.30;99.90
43089;DHT22;28709;52.030;5.652;2023-03-30T01:11:41;13.30;99.90
43089;DHT22;28709;52.030;5.652;2023-03-30T01:14:10;13.40;99.90
43089;DHT22;28709;52.030;5.652;2023-03-30T01:22:38;13.50;99.90
43089;DHT22;28709;52.030;5.652;2023-03-30T01:31:19;13.50;99.90
43089;DHT22;28709;52.030;5.652;2023-03-30T01:34:01;13.40;99.90
43089;DHT22;28709;52.030;5.652;2023-03-30T01:45:10;13.20;99.90
43089;DHT22;28709;52.030;5.652;2023-03-30T01:47:51;13.30;99.90
43089;DHT22;28709;52.030;5.652;2023-03-30T01:50:56;13.30;99.90
43089;DHT22;28709;52.030;5.652;2023-03-30T01:53:29;13.20;99.90
43089;DHT22;28709;52.030;5.652;2023-03-30T01:56:02;13.20;99.90
43089;DHT22;28709;52.030;5.652;2023-03-30T01:58:34;13.20;99.90
43089;DHT22;28709;52.030;5.652;2023-03-30T02:01:03;13.20;99.90
43089;DHT22;28709;52.030;5.652;2023-03-30T02:03:32;13.20;99.90
43089;DHT22;28709;52.030;5.652;2023-03-30T02:06:08;13.20;99.90
43089;DHT22;28709;52.030;5.652;2023-03-30T02:08:36;13.20;99.90
43089;DHT22;28709;52.030;5.652;2023-03-30T02:11:03;13.20;99.90
43089;DHT22;28709;52.030;5.652;2023-03-30T02:13:30;13.10;99.90
43089;DHT22;28709;52.030;5.652;2023-03-30T02:16:00;13.20;99.90
43089;DHT22;28709;52.030;5.652;2023-03-30T02:18:28;13.20;99.90
43089;DHT22;28709;52.030;5.652;2023-03-30T02:20:55;13.30;99.90
43089;DHT22;28709;52.030;5.652;2023-03-30T02:23:26;13.40;99.90
43089;DHT22;28709;52.030;5.652;2023-03-30T02:25:52;13.40;99.90
43089;DHT22;28709;52.030;5.652;2023-03-30T02:28:18;13.50;99.90
43089;DHT22;28709;52.030;5.652;2023-03-30T02:30:44;13.50;99.90
43089;DHT22;28709;52.030;5.652;2023-03-30T02:33:44;13.50;99.90
43089;DHT22;28709;52.030;5.652;2023-03-30T02:39:04;13.30;99.90
43089;DHT22;28709;52.030;5.652;2023-03-30T02:47:06;13.20;99.90
43089;DHT22;28709;52.030;5.652;2023-03-30T02:49:51;13.20;99.90
43089;DHT22;28709;52.030;5.652;2023-03-30T02:55:18;13.20;99.90
43089;DHT22;28709;52.030;5.652;2023-03-30T02:58:08;13.20;99.90
43089;DHT22;28709;52.030;5.652;2023-03-30T03:00:45;13.10;99.90
43089;DHT22;28709;52.030;5.652;2023-03-30T03:03:19;13.10;99.90
43089;DHT22;28709;52.030;5.652;2023-03-30T03:05:50;13.20;99.90
43089;DHT22;28709;52.030;5.652;2023-03-30T03:08:21;13.20;99.90
43089;DHT22;28709;52.030;5.652;2023-03-30T03:10:48;13.30;99.90
43089;DHT22;28709;52.030;5.652;2023-03-30T03:13:14;13.40;99.90
43089;DHT22;28709;52.030;5.652;2023-03-30T03:15:41;13.40;99.90
43089;DHT22;28709;52.030;5.652;2023-03-30T03:18:10;13.50;99.90
43089;DHT22;28709;52.030;5.652;2023-03-30T03:20:37;13.50;99.90
43089;DHT22;28709;52.030;5.652;2023-03-30T03:23:03;13.60;99.90
43089;DHT22;28709;52.030;5.652;2023-03-30T03:25:29;13.60;99.90
43089;DHT22;28709;52.030;5.652;2023-03-30T03:27:55;13.70;99.90
43089;DHT22;28709;52.030;5.652;2023-03-30T03:30:21;13.70;99.90
43089;DHT22;28709;52.030;5.652;2023-03-30T03:32:48;13.80;99.90
43089;DHT22;28709;52.030;5.652;2023-03-30T03:35:14;13.70;99.90
43089;DHT22;28709;52.030;5.652;2023-03-30T03:37:39;13.70;99.90
43089;DHT22;28709;52.030;5.652;2023-03-30T03:40:06;13.70;99.90
43089;DHT22;28709;52.030;5.652;2023-03-30T03:42:32;13.70;99.90
43089;DHT22;28709;52.030;5.652;2023-03-30T03:44:58;13.70;99.90
43089;DHT22;28709;52.030;5.652;2023-03-30T03:47:24;13.70;99.90
43089;DHT22;28709;52.030;5.652;2023-03-30T03:49:50;13.70;99.90
43089;DHT22;28709;52.030;5.652;2023-03-30T03:52:15;13.70;99.90
43089;DHT22;28709;52.030;5.652;2023-03-30T03:54:41;13.70;99.90
43089;DHT22;28709;52.030;5.652;2023-03-30T03:57:07;13.70;99.90
43089;DHT22;28709;52.030;5.652;2023-03-30T03:59:32;13.70;99.90
43089;DHT22;28709;52.030;5.652;2023-03-30T04:01:58;13.60;99.90
43089;DHT22;28709;52.030;5.652;2023-03-30T04:04:24;13.60;99.90
43089;DHT22;28709;52.030;5.652;2023-03-30T04:06:50;13.60;99.90
43089;DHT22;28709;52.030;5.652;2023-03-30T04:09:16;13.60;99.90
43089;DHT22;28709;52.030;5.652;2023-03-30T04:11:43;13.60;99.90
43089;DHT22;28709;52.030;5.652;2023-03-30T04:14:09;13.60;99.90
43089;DHT22;28709;52.030;5.652;2023-03-30T04:16:34;13.70;99.90
43089;DHT22;28709;52.030;5.652;2023-03-30T04:19:00;13.70;99.90
43089;DHT22;28709;52.030;5.652;2023-03-30T04:21:26;13.70;99.90
43089;DHT22;28709;52.030;5.652;2023-03-30T04:23:54;13.70;99.90
43089;DHT22;28709;52.030;5.652;2023-03-30T04:26:20;13.70;99.90
43089;DHT22;28709;52.030;5.652;2023-03-30T04:28:45;13.70;99.90
43089;DHT22;28709;52.030;5.652;2023-03-30T04:31:12;13.70;99.90
43089;DHT22;28709;52.030;5.652;2023-03-30T04:33:41;13.60;99.90
43089;DHT22;28709;52.030;5.652;2023-03-30T04:36:15;13.60;99.90
43089;DHT22;28709;52.030;5.652;2023-03-30T04:38:46;13.60;99.90
43089;DHT22;28709;52.030;5.652;2023-03-30T04:41:29;13.60;99.90
43089;DHT22;28709;52.030;5.652;2023-03-30T04:44:02;13.60;99.90
43089;DHT22;28709;52.030;5.652;2023-03-30T04:46:28;13.60;99.90
43089;DHT22;28709;52.030;5.652;2023-03-30T04:48:54;13.60;99.90
43089;DHT22;28709;52.030;5.652;2023-03-30T04:51:20;13.60;99.90
43089;DHT22;28709;52.030;5.652;2023-03-30T04:53:46;13.50;99.90
43089;DHT22;28709;52.030;5.652;2023-03-30T04:56:12;13.40;99.90
43089;DHT22;28709;52.030;5.652;2023-03-30T04:58:37;13.30;99.90
43089;DHT22;28709;52.030;5.652;2023-03-30T05:01:03;13.20;99.90
43089;DHT22;28709;52.030;5.652;2023-03-30T05:03:29;13.20;99.90
43089;DHT22;28709;52.030;5.652;2023-03-30T05:05:55;13.10;99.90
43089;DHT22;28709;52.030;5.652;2023-03-30T05:08:22;13.10;99.90
43089;DHT22;28709;52.030;5.652;2023-03-30T05:10:48;13.10;99.90
43089;DHT22;28709;52.030;5.652;2023-03-30T05:13:13;13.10;99.90
43089;DHT22;28709;52.030;5.652;2023-03-30T05:15:39;13.10;99.90
43089;DHT22;28709;52.030;5.652;2023-03-30T05:18:05;13.10;99.90
43089;DHT22;28709;52.030;5.652;2023-03-30T05:20:31;13.10;99.90
43089;DHT22;28709;52.030;5.652;2023-03-30T05:22:57;13.00;99.90
43089;DHT22;28709;52.030;5.652;2023-03-30T05:25:24;12.90;99.90
43089;DHT22;28709;52.030;5.652;2023-03-30T05:27:49;12.80;99.90
43089;DHT22;28709;52.030;5.652;2023-03-30T05:30:15;12.60;99.90
43089;DHT22;28709;52.030;5.652;2023-03-30T05:32:41;12.60;99.90
43089;DHT22;28709;52.030;5.652;2023-03-30T05:35:07;12.50;99.90
43089;DHT22;28709;52.030;5.652;2023-03-30T05:37:33;12.50;99.90
43089;DHT22;28709;52.030;5.652;2023-03-30T05:39:59;12.50;99.90
43089;DHT22;28709;52.030;5.652;2023-03-30T05:42:25;12.50;99.90
43089;DHT22;28709;52.030;5.652;2023-03-30T05:44:50;12.40;99.90
43089;DHT22;28709;52.030;5.652;2023-03-30T05:47:16;12.40;99.90
43089;DHT22;28709;52.030;5.652;2023-03-30T05:49:42;12.40;99.90
43089;DHT22;28709;52.030;5.652;2023-03-30T05:52:08;12.40;99.90
43089;DHT22;28709;52.030;5.652;2023-03-30T05:54:34;12.40;99.90
43089;DHT22;28709;52.030;5.652;2023-03-30T05:57:00;12.40;99.90
43089;DHT22;28709;52.030;5.652;2023-03-30T05:59:25;12.40;99.90
43089;DHT22;28709;52.030;5.652;2023-03-30T06:01:51;12.40;99.90
43089;DHT22;28709;52.030;5.652;2023-03-30T06:04:17;12.40;99.90
43089;DHT22;28709;52.030;5.652;2023-03-30T06:06:43;12.50;99.90
43089;DHT22;28709;52.030;5.652;2023-03-30T06:09:08;12.50;99.90
43089;DHT22;28709;52.030;5.652;2023-03-30T06:11:34;12.60;99.90
43089;DHT22;28709;52.030;5.652;2023-03-30T06:14:00;12.60;99.90
43089;DHT22;28709;52.030;5.652;2023-03-30T06:16:26;12.50;99.90
43089;DHT22;28709;52.030;5.652;2023-03-30T06:18:53;12.60;99.90
43089;DHT22;28709;52.030;5.652;2023-03-30T06:21:19;12.50;99.90
43089;DHT22;28709;52.030;5.652;2023-03-30T06:23:45;12.50;99.90
43089;DHT22;28709;52.030;5.652;2023-03-30T06:26:11;12.60;99.90
43089;DHT22;28709;52.030;5.652;2023-03-30T06:28:37;12.60;99.90
43089;DHT22;28709;52.030;5.652;2023-03-30T06:31:08;12.70;99.90
43089;DHT22;28709;52.030;5.652;2023-03-30T06:33:34;12.70;99.90
43089;DHT22;28709;52.030;5.652;2023-03-30T06:36:00;12.70;99.90
43089;DHT22;28709;52.030;5.652;2023-03-30T06:38:26;12.80;99.90
43089;DHT22;28709;52.030;5.652;2023-03-30T06:40:52;12.80;99.90
43089;DHT22;28709;52.030;5.652;2023-03-30T06:43:21;12.90;99.90
43089;DHT22;28709;52.030;5.652;2023-03-30T06:45:55;12.90;99.90
43089;DHT22;28709;52.030;5.652;2023-03-30T06:48:22;12.90;99.90
43089;DHT22;28709;52.030;5.652;2023-03-30T06:50:51;12.90;99.90
43089;DHT22;28709;52.030;5.652;2023-03-30T06:53:17;13.00;99.90
43089;DHT22;28709;52.030;5.652;2023-03-30T06:55:44;12.90;99.90
43089;DHT22;28709;52.030;5.652;2023-03-30T06:58:10;13.00;99.90
43089;DHT22;28709;52.030;5.652;2023-03-30T07:00:35;13.00;99.90
43089;DHT22;28709;52.030;5.652;2023-03-30T07:03:01;13.00;99.90
43089;DHT22;28709;52.030;5.652;2023-03-30T07:05:28;13.00;99.90
43089;DHT22;28709;52.030;5.652;2023-03-30T07:07:54;13.10;99.90
43089;DHT22;28709;52.030;5.652;2023-03-30T07:10:21;13.00;99.90
43089;DHT22;28709;52.030;5.652;2023-03-30T07:12:47;13.10;99.90
43089;DHT22;28709;52.030;5.652;2023-03-30T07:15:13;13.20;99.90
43089;DHT22;28709;52.030;5.652;2023-03-30T07:17:39;13.40;99.90
43089;DHT22;28709;52.030;5.652;2023-03-30T07:20:06;13.50;99.90
43089;DHT22;28709;52.030;5.652;2023-03-30T07:22:33;13.50;99.90
43089;DHT22;28709;52.030;5.652;2023-03-30T07:24:58;13.50;99.90
43089;DHT22;28709;52.030;5.652;2023-03-30T07:27:24;13.50;99.90
43089;DHT22;28709;52.030;5.652;2023-03-30T07:29:50;13.60;99.90
43089;DHT22;28709;52.030;5.652;2023-03-30T07:32:17;13.50;99.90
43089;DHT22;28709;52.030;5.652;2023-03-30T07:34:43;13.50;99.90
43089;DHT22;28709;52.030;5.652;2023-03-30T07:37:09;13.40;99.90
43089;DHT22;28709;52.030;5.652;2023-03-30T07:39:35;13.50;99.90
43089;DHT22;28709;52.030;5.652;2023-03-30T07:42:01;13.50;99.90
43089;DHT22;28709;52.030;5.652;2023-03-30T07:44:27;13.50;99.90
43089;DHT22;28709;52.030;5.652;2023-03-30T07:46:55;13.40;99.90
43089;DHT22;28709;52.030;5.652;2023-03-30T07:49:21;13.40;99.90
43089;DHT22;28709;52.030;5.652;2023-03-30T07:51:47;13.40;99.90
43089;DHT22;28709;52.030;5.652;2023-03-30T07:54:13;13.40;99.90
43089;DHT22;28709;52.030;5.652;2023-03-30T07:56:38;13.40;99.90
43089;DHT22;28709;52.030;5.652;2023-03-30T07:59:05;13.40;99.90
43089;DHT22;28709;52.030;5.652;2023-03-30T08:01:33;13.50;99.90
43089;DHT22;28709;52.030;5.652;2023-03-30T08:03:59;13.50;99.90
43089;DHT22;28709;52.030;5.652;2023-03-30T08:06:26;13.50;99.90
43089;DHT22;28709;52.030;5.652;2023-03-30T08:08:51;13.50;99.90
43089;DHT22;28709;52.030;5.652;2023-03-30T08:11:17;13.50;99.90
43089;DHT22;28709;52.030;5.652;2023-03-30T08:13:43;13.60;99.90
43089;DHT22;28709;52.030;5.652;2023-03-30T08:16:10;13.70;99.90
43089;DHT22;28709;52.030;5.652;2023-03-30T08:18:36;13.80;99.90
43089;DHT22;28709;52.030;5.652;2023-03-30T08:21:02;13.80;99.90
43089;DHT22;28709;52.030;5.652;2023-03-30T08:23:28;13.80;99.90
43089;DHT22;28709;52.030;5.652;2023-03-30T08:26:00;13.90;99.90
43089;DHT22;28709;52.030;5.652;2023-03-30T08:28:26;14.10;99.90
43089;DHT22;28709;52.030;5.652;2023-03-30T08:30:52;14.20;99.90
43089;DHT22;28709;52.030;5.652;2023-03-30T08:33:19;14.20;99.90
43089;DHT22;28709;52.030;5.652;2023-03-30T08:35:46;14.20;99.90
43089;DHT22;28709;52.030;5.652;2023-03-30T08:38:12;14.20;99.90
43089;DHT22;28709;52.030;5.652;2023-03-30T08:40:46;14.10;99.90
43089;DHT22;28709;52.030;5.652;2023-03-30T08:45:47;14.00;99.90
43089;DHT22;28709;52.030;5.652;2023-03-30T08:48:25;14.00;99.90
43089;DHT22;28709;52.030;5.652;2023-03-30T08:53:57;13.80;99.90
43089;DHT22;28709;52.030;5.652;2023-03-30T08:56:27;13.60;99.90
43089;DHT22;28709;52.030;5.652;2023-03-30T09:02:02;13.50;99.90
43089;DHT22;28709;52.030;5.652;2023-03-30T09:07:38;13.40;99.90
43089;DHT22;28709;52.030;5.652;2023-03-30T09:10:13;13.40;99.90
43089;DHT22;28709;52.030;5.652;2023-03-30T09:12:56;13.50;99.90
43089;DHT22;28709;52.030;5.652;2023-03-30T09:18:21;13.40;99.90
43089;DHT22;28709;52.030;5.652;2023-03-30T09:20:51;13.50;99.90
43089;DHT22;28709;52.030;5.652;2023-03-30T09:23:18;13.80;99.90
43089;DHT22;28709;52.030;5.652;2023-03-30T09:29:00;14.20;99.90
43089;DHT22;28709;52.030;5.652;2023-03-30T09:34:04;14.70;99.90
43089;DHT22;28709;52.030;5.652;2023-03-30T09:36:56;14.70;99.90
43089;DHT22;28709;52.030;5.652;2023-03-30T09:39:27;14.60;99.90
43089;DHT22;28709;52.030;5.652;2023-03-30T09:47:26;14.80;99.90
43089;DHT22;28709;52.030;5.652;2023-03-30T09:50:00;14.90;99.90
43089;DHT22;28709;52.030;5.652;2023-03-30T09:52:29;15.00;99.90
43089;DHT22;28709;52.030;5.652;2023-03-30T09:55:15;15.00;99.90
43089;DHT22;28709;52.030;5.652;2023-03-30T09:57:42;15.30;99.90
43089;DHT22;28709;52.030;5.652;2023-03-30T10:00:29;15.80;99.90
43089;DHT22;28709;52.030;5.652;2023-03-30T10:03:03;16.00;99.90
43089;DHT22;28709;52.030;5.652;2023-03-30T10:05:30;16.30;99.90
43089;DHT22;28709;52.030;5.652;2023-03-30T10:08:19;16.30;99.90
43089;DHT22;28709;52.030;5.652;2023-03-30T10:10:52;16.10;99.90
43089;DHT22;28709;52.030;5.652;2023-03-30T10:13:18;15.90;99.90
43089;DHT22;28709;52.030;5.652;2023-03-30T10:15:46;15.80;99.90
43089;DHT22;28709;52.030;5.652;2023-03-30T10:18:27;15.80;99.90
43089;DHT22;28709;52.030;5.652;2023-03-30T10:21:14;15.50;99.90
43089;DHT22;28709;52.030;5.652;2023-03-30T10:23:43;15.30;99.90
43089;DHT22;28709;52.030;5.652;2023-03-30T10:26:28;15.20;99.90
43089;DHT22;28709;52.030;5.652;2023-03-30T10:29:06;15.30;99.90
43089;DHT22;28709;52.030;5.652;2023-03-30T10:31:36;15.70;99.90
43089;DHT22;28709;52.030;5.652;2023-03-30T10:34:04;16.30;99.90
43089;DHT22;28709;52.030;5.652;2023-03-30T10:36:37;17.00;99.90
43089;DHT22;28709;52.030;5.652;2023-03-30T10:39:34;17.60;99.90
43089;DHT22;28709;52.030;5.652;2023-03-30T10:42:02;17.80;99.90
43089;DHT22;28709;52.030;5.652;2023-03-30T10:47:37;17.70;99.90
43089;DHT22;28709;52.030;5.652;2023-03-30T10:55:32;17.20;99.90
43089;DHT22;28709;52.030;5.652;2023-03-30T11:03:29;18.10;99.90
43089;DHT22;28709;52.030;5.652;2023-03-30T11:06:20;18.40;99.90
43089;DHT22;28709;52.030;5.652;2023-03-30T11:08:49;18.60;99.90
43089;DHT22;28709;52.030;5.652;2023-03-30T11:11:20;18.50;99.90
43089;DHT22;28709;52.030;5.652;2023-03-30T11:14:10;18.20;99.90
43089;DHT22;28709;52.030;5.652;2023-03-30T11:16:48;18.30;99.90
43089;DHT22;28709;52.030;5.652;2023-03-30T11:19:19;18.30;99.90
43089;DHT22;28709;52.030;5.652;2023-03-30T11:24:34;18.30;99.90
43089;DHT22;28709;52.030;5.652;2023-03-30T11:32:36;17.70;99.90
43089;DHT22;28709;52.030;5.652;2023-03-30T11:35:26;17.80;99.90
43089;DHT22;28709;52.030;5.652;2023-03-30T11:38:32;17.50;99.90
43089;DHT22;28709;52.030;5.652;2023-03-30T11:41:04;17.50;99.90
43089;DHT22;28709;52.030;5.652;2023-03-30T11:43:33;17.80;99.90
43089;DHT22;28709;52.030;5.652;2023-03-30T11:46:10;17.80;99.90
43089;DHT22;28709;52.030;5.652;2023-03-30T12:05:33;16.70;99.90
43089;DHT22;28709;52.030;5.652;2023-03-30T12:11:04;16.20;99.90
43089;DHT22;28709;52.030;5.652;2023-03-30T12:13:31;16.10;99.90
43089;DHT22;28709;52.030;5.652;2023-03-30T12:15:59;16.10;99.90
43089;DHT22;28709;52.030;5.652;2023-03-30T12:19:02;16.20;99.90
43089;DHT22;28709;52.030;5.652;2023-03-30T12:21:56;16.20;99.90
43089;DHT22;28709;52.030;5.652;2023-03-30T12:24:36;16.10;99.90
43089;DHT22;28709;52.030;5.652;2023-03-30T12:27:02;16.10;99.90
43089;DHT22;28709;52.030;5.652;2023-03-30T12:29:46;16.00;99.90
43089;DHT22;28709;52.030;5.652;2023-03-30T12:32:23;16.20;99.90
43089;DHT22;28709;52.030;5.652;2023-03-30T12:34:50;16.40;99.90
43089;DHT22;28709;52.030;5.652;2023-03-30T12:37:26;16.60;99.90
43089;DHT22;28709;52.030;5.652;2023-03-30T12:42:35;17.90;99.90
43089;DHT22;28709;52.030;5.652;2023-03-30T12:45:19;18.60;99.90
43089;DHT22;28709;52.030;5.652;2023-03-30T12:56:37;18.70;99.90
43089;DHT22;28709;52.030;5.652;2023-03-30T13:04:55;17.60;99.90
43089;DHT22;28709;52.030;5.652;2023-03-30T13:07:26;17.20;99.90
43089;DHT22;28709;52.030;5.652;2023-03-30T13:10:31;16.90;99.90
43089;DHT22;28709;52.030;5.652;2023-03-30T13:12:49;16.90;99.90
43089;DHT22;28709;52.030;5.652;2023-03-30T13:17:49;16.80;99.90
43089;DHT22;28709;52.030;5.652;2023-03-30T13:23:20;16.40;99.90
43089;DHT22;28709;52.030;5.652;2023-03-30T13:31:09;15.50;99.90
43089;DHT22;28709;52.030;5.652;2023-03-30T13:33:41;15.40;99.90
43089;DHT22;28709;52.030;5.652;2023-03-30T13:36:13;15.40;99.90
43089;DHT22;28709;52.030;5.652;2023-03-30T13:50:25;15.40;99.90
43089;DHT22;28709;52.030;5.652;2023-03-30T13:52:54;15.30;99.90
43089;DHT22;28709;52.030;5.652;2023-03-30T13:55:37;15.30;99.90
43089;DHT22;28709;52.030;5.652;2023-03-30T14:00:44;15.60;99.90
43089;DHT22;28709;52.030;5.652;2023-03-30T14:03:32;15.90;99.90
43089;DHT22;28709;52.030;5.652;2023-03-30T14:06:05;16.20;99.90
43089;DHT22;28709;52.030;5.652;2023-03-30T14:08:36;16.20;99.90
43089;DHT22;28709;52.030;5.652;2023-03-30T14:11:24;16.40;99.90
43089;DHT22;28709;52.030;5.652;2023-03-30T14:13:52;16.40;99.90
43089;DHT22;28709;52.030;5.652;2023-03-30T14:16:24;16.50;99.90
43089;DHT22;28709;52.030;5.652;2023-03-30T14:18:52;16.60;99.90
43089;DHT22;28709;52.030;5.652;2023-03-30T14:21:20;16.60;99.90
43089;DHT22;28709;52.030;5.652;2023-03-30T14:23:53;16.40;99.90
43089;DHT22;28709;52.030;5.652;2023-03-30T14:26:24;16.30;99.90
43089;DHT22;28709;52.030;5.652;2023-03-30T14:28:59;16.20;99.90
43089;DHT22;28709;52.030;5.652;2023-03-30T14:31:27;16.10;99.90
43089;DHT22;28709;52.030;5.652;2023-03-30T14:34:01;16.10;99.90
43089;DHT22;28709;52.030;5.652;2023-03-30T14:36:28;16.10;99.90
43089;DHT22;28709;52.030;5.652;2023-03-30T14:38:54;16.10;99.90
43089;DHT22;28709;52.030;5.652;2023-03-30T14:41:28;16.10;99.90
43089;DHT22;28709;52.030;5.652;2023-03-30T14:44:05;16.00;99.90
43089;DHT22;28709;52.030;5.652;2023-03-30T14:46:40;16.00;99.90
43089;DHT22;28709;52.030;5.652;2023-03-30T14:49:09;16.10;99.90
43089;DHT22;28709;52.030;5.652;2023-03-30T14:51:44;16.20;99.90
43089;DHT22;28709;52.030;5.652;2023-03-30T14:54:20;16.40;99.90
43089;DHT22;28709;52.030;5.652;2023-03-30T14:56:57;16.60;99.90
43089;DHT22;28709;52.030;5.652;2023-03-30T14:59:25;16.70;99.90
43089;DHT22;28709;52.030;5.652;2023-03-30T15:01:53;16.60;99.90
43089;DHT22;28709;52.030;5.652;2023-03-30T15:04:23;16.50;99.90
43089;DHT22;28709;52.030;5.652;2023-03-30T15:06:50;16.40;99.90
43089;DHT22;28709;52.030;5.652;2023-03-30T15:09:21;16.30;99.90
43089;DHT22;28709;52.030;5.652;2023-03-30T15:11:59;16.10;99.90
43089;DHT22;28709;52.030;5.652;2023-03-30T15:14:31;16.10;99.90
43089;DHT22;28709;52.030;5.652;2023-03-30T15:16:58;16.20;99.90
43089;DHT22;28709;52.030;5.652;2023-03-30T15:19:31;16.20;99.90
43089;DHT22;28709;52.030;5.652;2023-03-30T15:22:22;16.20;99.90
43089;DHT22;28709;52.030;5.652;2023-03-30T15:24:46;16.20;99.90
43089;DHT22;28709;52.030;5.652;2023-03-30T15:27:13;16.10;99.90
43089;DHT22;28709;52.030;5.652;2023-03-30T15:29:40;16.00;99.90
43089;DHT22;28709;52.030;5.652;2023-03-30T15:34:35;16.10;99.90
43089;DHT22;28709;52.030;5.652;2023-03-30T15:37:01;16.10;99.90
43089;DHT22;28709;52.030;5.652;2023-03-30T15:39:30;16.10;99.90
43089;DHT22;28709;52.030;5.652;2023-03-30T15:42:05;15.90;99.90
43089;DHT22;28709;52.030;5.652;2023-03-30T15:44:36;15.90;99.90
43089;DHT22;28709;52.030;5.652;2023-03-30T15:47:05;15.90;99.90
43089;DHT22;28709;52.030;5.652;2023-03-30T15:49:43;15.80;99.90
43089;DHT22;28709;52.030;5.652;2023-03-30T15:52:41;15.70;99.90
43089;DHT22;28709;52.030;5.652;2023-03-30T15:55:18;15.70;99.90
43089;DHT22;28709;52.030;5.652;2023-03-30T15:57:46;15.70;99.90
43089;DHT22;28709;52.030;5.652;2023-03-30T16:00:16;15.70;99.90
43089;DHT22;28709;52.030;5.652;2023-03-30T16:02:51;15.70;99.90
43089;DHT22;28709;52.030;5.652;2023-03-30T16:05:23;15.70;99.90
43089;DHT22;28709;52.030;5.652;2023-03-30T16:07:49;15.80;99.90
43089;DHT22;28709;52.030;5.652;2023-03-30T16:10:18;15.80;99.90
43089;DHT22;28709;52.030;5.652;2023-03-30T16:12:49;15.80;99.90
43089;DHT22;28709;52.030;5.652;2023-03-30T16:15:21;15.70;99.90
43089;DHT22;28709;52.030;5.652;2023-03-30T16:17:48;15.70;99.90
43089;DHT22;28709;52.030;5.652;2023-03-30T16:20:18;15.60;99.90
43089;DHT22;28709;52.030;5.652;2023-03-30T16:22:45;15.60;99.90
43089;DHT22;28709;52.030;5.652;2023-03-30T16:25:12;15.60;99.90
43089;DHT22;28709;52.030;5.652;2023-03-30T16:27:38;15.50;99.90
43089;DHT22;28709;52.030;5.652;2023-03-30T16:30:18;15.50;99.90
43089;DHT22;28709;52.030;5.652;2023-03-30T16:32:45;15.50;99.90
43089;DHT22;28709;52.030;5.652;2023-03-30T16:35:11;15.50;99.90
43089;DHT22;28709;52.030;5.652;2023-03-30T16:37:38;15.50;99.90
43089;DHT22;28709;52.030;5.652;2023-03-30T16:42:46;15.30;99.90
43089;DHT22;28709;52.030;5.652;2023-03-30T16:45:11;15.30;99.90
43089;DHT22;28709;52.030;5.652;2023-03-30T16:47:37;15.20;99.90
43089;DHT22;28709;52.030;5.652;2023-03-30T16:50:22;15.10;99.90
43089;DHT22;28709;52.030;5.652;2023-03-30T16:52:49;15.00;99.90
43089;DHT22;28709;52.030;5.652;2023-03-30T16:55:18;15.00;99.90
43089;DHT22;28709;52.030;5.652;2023-03-30T16:57:44;15.00;99.90
43089;DHT22;28709;52.030;5.652;2023-03-30T17:02:42;14.90;99.90
43089;DHT22;28709;52.030;5.652;2023-03-30T17:05:08;14.80;99.90
43089;DHT22;28709;52.030;5.652;2023-03-30T17:07:33;14.80;99.90
43089;DHT22;28709;52.030;5.652;2023-03-30T17:10:15;14.70;99.90
43089;DHT22;28709;52.030;5.652;2023-03-30T17:12:41;14.70;99.90
43089;DHT22;28709;52.030;5.652;2023-03-30T17:15:08;14.60;99.90
43089;DHT22;28709;52.030;5.652;2023-03-30T17:17:34;14.50;99.90
43089;DHT22;28709;52.030;5.652;2023-03-30T17:20:33;14.50;99.90
43089;DHT22;28709;52.030;5.652;2023-03-30T17:22:57;14.50;99.90
43089;DHT22;28709;52.030;5.652;2023-03-30T17:25:23;14.50;99.90
43089;DHT22;28709;52.030;5.652;2023-03-30T17:27:54;14.40;99.90
43089;DHT22;28709;52.030;5.652;2023-03-30T17:30:27;14.40;99.90
43089;DHT22;28709;52.030;5.652;2023-03-30T17:32:54;14.50;99.90
43089;DHT22;28709;52.030;5.652;2023-03-30T17:35:22;14.50;99.90
43089;DHT22;28709;52.030;5.652;2023-03-30T17:37:48;14.40;99.90
43089;DHT22;28709;52.030;5.652;2023-03-30T17:40:16;14.30;99.90
43089;DHT22;28709;52.030;5.652;2023-03-30T17:42:42;14.20;99.90
43089;DHT22;28709;52.030;5.652;2023-03-30T17:45:09;14.20;99.90
43089;DHT22;28709;52.030;5.652;2023-03-30T17:47:35;14.00;99.90
43089;DHT22;28709;52.030;5.652;2023-03-30T17:50:01;14.00;99.90
43089;DHT22;28709;52.030;5.652;2023-03-30T17:52:27;13.90;99.90
43089;DHT22;28709;52.030;5.652;2023-03-30T17:54:57;13.80;99.90
43089;DHT22;28709;52.030;5.652;2023-03-30T17:57:23;13.70;99.90
43089;DHT22;28709;52.030;5.652;2023-03-30T17:59:49;13.70;99.90
43089;DHT22;28709;52.030;5.652;2023-03-30T18:02:14;13.60;99.90
43089;DHT22;28709;52.030;5.652;2023-03-30T18:04:40;13.50;99.90
43089;DHT22;28709;52.030;5.652;2023-03-30T18:07:07;13.50;99.90
43089;DHT22;28709;52.030;5.652;2023-03-30T18:09:33;13.40;99.90
43089;DHT22;28709;52.030;5.652;2023-03-30T18:11:59;13.40;99.90
43089;DHT22;28709;52.030;5.652;2023-03-30T18:14:25;13.30;99.90
43089;DHT22;28709;52.030;5.652;2023-03-30T18:16:51;13.30;99.90
43089;DHT22;28709;52.030;5.652;2023-03-30T18:19:16;13.20;99.90